sensor_id;sensor_type;location;lat;lon;timestamp;pressure;altitude;pressure_sealevel;temperature;humidity
69035;BME280;56091;55.756;37.412;2022-12-20T00:04:57;100099.13;;;-4.52;82.62
69035;BME280;56091;55.756;37.412;2022-12-20T00:09:58;100089.59;;;-4.53;83.10
69035;BME280;56091;55.756;37.412;2022-12-20T00:14:59;100085.25;;;-4.54;82.68
69035;BME280;56091;55.756;37.412;2022-12-20T00:19:59;100097.47;;;-4.53;82.41
69035;BME280;56091;55.756;37.412;2022-12-20T00:25:00;100094.16;;;-4.64;82.69
69035;BME280;56091;55.756;37.412;2022-12-20T00:30:01;100086.13;;;-4.63;82.83
69035;BME280;56091;55.756;37.412;2022-12-20T00:35:04;100078.75;;;-4.59;82.91
69035;BME280;56091;55.756;37.412;2022-12-20T00:40:06;100062.81;;;-4.58;82.19
69035;BME280;56091;55.756;37.412;2022-12-20T00:45:07;100073.09;;;-4.55;82.31
69035;BME280;56091;55.756;37.412;2022-12-20T00:50:08;100053.97;;;-4.57;82.22
69035;BME280;56091;55.756;37.412;2022-12-20T00:55:09;100046.75;;;-4.45;82.04
69035;BME280;56091;55.756;37.412;2022-12-20T01:00:10;100047.69;;;-4.56;81.74
69035;BME280;56091;55.756;37.412;2022-12-20T01:05:11;100039.25;;;-4.69;82.46
69035;BME280;56091;55.756;37.412;2022-12-20T01:10:12;100034.41;;;-4.74;82.66
69035;BME280;56091;55.756;37.412;2022-12-20T01:15:13;100023.31;;;-4.77;82.98
69035;BME280;56091;55.756;37.412;2022-12-20T01:20:15;100025.69;;;-4.74;82.87
69035;BME280;56091;55.756;37.412;2022-12-20T01:25:16;100010.41;;;-4.80;83.10
69035;BME280;56091;55.756;37.412;2022-12-20T01:30:35;100018.44;;;-4.92;83.64
69035;BME280;56091;55.756;37.412;2022-12-20T01:35:39;99998.50;;;-4.84;83.47
69035;BME280;56091;55.756;37.412;2022-12-20T01:40:39;100013.88;;;-4.90;82.72
69035;BME280;56091;55.756;37.412;2022-12-20T01:45:43;100011.97;;;-4.87;82.06
69035;BME280;56091;55.756;37.412;2022-12-20T01:50:45;100000.16;;;-5.03;81.36
69035;BME280;56091;55.756;37.412;2022-12-20T01:55:47;99987.25;;;-5.25;81.24
69035;BME280;56091;55.756;37.412;2022-12-20T02:00:49;99992.78;;;-5.28;81.24
69035;BME280;56091;55.756;37.412;2022-12-20T02:05:50;99985.44;;;-5.35;81.24
69035;BME280;56091;55.756;37.412;2022-12-20T02:16:28;99986.69;;;-5.29;81.02
69035;BME280;56091;55.756;37.412;2022-12-20T02:32:30;99956.63;;;-5.46;79.93
69035;BME280;56091;55.756;37.412;2022-12-20T02:37:33;99965.59;;;-5.49;80.30
69035;BME280;56091;55.756;37.412;2022-12-20T02:42:35;99943.69;;;-5.69;80.59
69035;BME280;56091;55.756;37.412;2022-12-20T02:47:39;99936.34;;;-5.75;80.61
69035;BME280;56091;55.756;37.412;2022-12-20T02:52:42;99932.72;;;-5.83;79.34
69035;BME280;56091;55.756;37.412;2022-12-20T03:02:46;99920.63;;;-6.05;77.39
69035;BME280;56091;55.756;37.412;2022-12-20T03:08:07;99911.88;;;-6.16;77.23
69035;BME280;56091;55.756;37.412;2022-12-20T03:13:09;99915.91;;;-6.12;77.12
69035;BME280;56091;55.756;37.412;2022-12-20T03:18:16;99907.47;;;-6.05;77.35
69035;BME280;56091;55.756;37.412;2022-12-20T03:23:16;99893.50;;;-6.16;77.02
69035;BME280;56091;55.756;37.412;2022-12-20T03:28:17;99870.03;;;-6.38;76.80
69035;BME280;56091;55.756;37.412;2022-12-20T03:33:18;99872.78;;;-6.40;76.71
69035;BME280;56091;55.756;37.412;2022-12-20T03:38:31;99869.88;;;-6.46;77.18
69035;BME280;56091;55.756;37.412;2022-12-20T03:43:32;99863.34;;;-6.52;76.14
69035;BME280;56091;55.756;37.412;2022-12-20T03:48:32;99848.75;;;-6.66;75.06
69035;BME280;56091;55.756;37.412;2022-12-20T03:53:33;99814.66;;;-6.87;75.24
69035;BME280;56091;55.756;37.412;2022-12-20T03:58:34;99836.69;;;-6.78;73.23
69035;BME280;56091;55.756;37.412;2022-12-20T04:03:36;99816.28;;;-6.96;72.40
69035;BME280;56091;55.756;37.412;2022-12-20T04:08:38;99813.00;;;-6.88;72.61
69035;BME280;56091;55.756;37.412;2022-12-20T04:13:39;99802.13;;;-6.83;72.12
69035;BME280;56091;55.756;37.412;2022-12-20T04:18:43;99798.63;;;-6.94;70.38
69035;BME280;56091;55.756;37.412;2022-12-20T04:23:44;99795.56;;;-6.99;70.19
69035;BME280;56091;55.756;37.412;2022-12-20T04:28:46;99792.16;;;-6.90;70.66
69035;BME280;56091;55.756;37.412;2022-12-20T04:33:46;99795.16;;;-6.73;69.77
69035;BME280;56091;55.756;37.412;2022-12-20T04:38:51;99799.69;;;-6.75;68.57
69035;BME280;56091;55.756;37.412;2022-12-20T04:43:56;99788.56;;;-6.89;69.31
69035;BME280;56091;55.756;37.412;2022-12-20T04:49:02;99786.13;;;-6.80;69.84
69035;BME280;56091;55.756;37.412;2022-12-20T04:54:07;99796.03;;;-6.84;69.90
69035;BME280;56091;55.756;37.412;2022-12-20T04:59:19;99784.72;;;-6.84;69.65
69035;BME280;56091;55.756;37.412;2022-12-20T05:04:23;99783.72;;;-6.93;69.06
69035;BME280;56091;55.756;37.412;2022-12-20T05:09:24;99772.28;;;-6.92;69.53
69035;BME280;56091;55.756;37.412;2022-12-20T05:14:26;99768.72;;;-6.81;68.60
69035;BME280;56091;55.756;37.412;2022-12-20T05:19:27;99752.56;;;-6.87;68.86
69035;BME280;56091;55.756;37.412;2022-12-20T05:24:28;99749.19;;;-6.89;68.39
69035;BME280;56091;55.756;37.412;2022-12-20T05:30:06;99747.56;;;-6.90;67.62
69035;BME280;56091;55.756;37.412;2022-12-20T05:35:07;99740.28;;;-6.76;68.00
69035;BME280;56091;55.756;37.412;2022-12-20T05:40:09;99737.41;;;-6.73;67.22
69035;BME280;56091;55.756;37.412;2022-12-20T05:45:10;99713.78;;;-6.73;67.66
69035;BME280;56091;55.756;37.412;2022-12-20T05:50:21;99713.72;;;-6.83;67.90
69035;BME280;56091;55.756;37.412;2022-12-20T05:55:44;99700.00;;;-6.96;67.97
69035;BME280;56091;55.756;37.412;2022-12-20T06:00:47;99709.31;;;-6.92;68.66
69035;BME280;56091;55.756;37.412;2022-12-20T06:05:49;99724.88;;;-6.91;68.34
69035;BME280;56091;55.756;37.412;2022-12-20T06:10:59;99708.66;;;-6.84;68.35
69035;BME280;56091;55.756;37.412;2022-12-20T06:16:04;99705.81;;;-6.93;68.06
69035;BME280;56091;55.756;37.412;2022-12-20T06:21:08;99688.22;;;-7.12;68.10
69035;BME280;56091;55.756;37.412;2022-12-20T06:26:11;99704.28;;;-7.05;68.02
69035;BME280;56091;55.756;37.412;2022-12-20T06:31:20;99694.81;;;-7.17;67.95
69035;BME280;56091;55.756;37.412;2022-12-20T06:36:25;99671.31;;;-7.29;68.11
69035;BME280;56091;55.756;37.412;2022-12-20T06:41:27;99673.00;;;-7.18;68.11
69035;BME280;56091;55.756;37.412;2022-12-20T06:46:28;99659.25;;;-7.41;68.06
69035;BME280;56091;55.756;37.412;2022-12-20T06:51:30;99637.31;;;-7.40;67.80
69035;BME280;56091;55.756;37.412;2022-12-20T06:56:33;99636.75;;;-7.43;67.42
69035;BME280;56091;55.756;37.412;2022-12-20T07:01:34;99633.81;;;-7.50;67.75
69035;BME280;56091;55.756;37.412;2022-12-20T07:06:36;99618.78;;;-7.48;67.42
69035;BME280;56091;55.756;37.412;2022-12-20T07:11:37;99602.03;;;-7.36;67.07
69035;BME280;56091;55.756;37.412;2022-12-20T07:16:38;99591.00;;;-7.30;66.68
69035;BME280;56091;55.756;37.412;2022-12-20T07:21:43;99588.75;;;-7.34;66.83
69035;BME280;56091;55.756;37.412;2022-12-20T07:26:44;99579.72;;;-7.20;66.25
69035;BME280;56091;55.756;37.412;2022-12-20T07:31:45;99568.94;;;-7.17;65.98
69035;BME280;56091;55.756;37.412;2022-12-20T07:36:46;99549.91;;;-7.19;65.44
69035;BME280;56091;55.756;37.412;2022-12-20T07:41:47;99538.34;;;-7.17;65.03
69035;BME280;56091;55.756;37.412;2022-12-20T07:46:50;99528.25;;;-7.12;64.78
69035;BME280;56091;55.756;37.412;2022-12-20T07:51:54;99525.13;;;-6.96;64.67
69035;BME280;56091;55.756;37.412;2022-12-20T07:56:59;99495.28;;;-7.14;64.08
69035;BME280;56091;55.756;37.412;2022-12-20T08:02:01;99508.13;;;-7.01;64.09
69035;BME280;56091;55.756;37.412;2022-12-20T08:07:03;99497.91;;;-6.95;63.77
69035;BME280;56091;55.756;37.412;2022-12-20T08:12:06;99465.59;;;-7.15;64.01
69035;BME280;56091;55.756;37.412;2022-12-20T08:17:08;99463.81;;;-7.14;64.18
69035;BME280;56091;55.756;37.412;2022-12-20T08:22:09;99467.53;;;-7.17;64.16
69035;BME280;56091;55.756;37.412;2022-12-20T08:27:10;99461.31;;;-7.16;64.35
69035;BME280;56091;55.756;37.412;2022-12-20T08:32:11;99412.72;;;-7.39;64.07
69035;BME280;56091;55.756;37.412;2022-12-20T08:37:16;99456.06;;;-7.16;64.33
69035;BME280;56091;55.756;37.412;2022-12-20T08:42:17;99448.19;;;-7.16;64.57
69035;BME280;56091;55.756;37.412;2022-12-20T08:47:18;99440.06;;;-7.22;64.59
69035;BME280;56091;55.756;37.412;2022-12-20T08:52:19;99428.47;;;-7.20;64.78
69035;BME280;56091;55.756;37.412;2022-12-20T08:57:21;99424.19;;;-7.21;64.44
69035;BME280;56091;55.756;37.412;2022-12-20T09:02:22;99378.78;;;-7.31;64.53
69035;BME280;56091;55.756;37.412;2022-12-20T09:07:22;99376.03;;;-7.20;64.64
69035;BME280;56091;55.756;37.412;2022-12-20T09:12:23;99403.09;;;-7.00;64.24
69035;BME280;56091;55.756;37.412;2022-12-20T09:17:24;99372.16;;;-7.06;64.26
69035;BME280;56091;55.756;37.412;2022-12-20T09:22:27;99364.00;;;-6.93;63.77
69035;BME280;56091;55.756;37.412;2022-12-20T09:27:27;99358.47;;;-6.80;63.66
69035;BME280;56091;55.756;37.412;2022-12-20T09:32:28;99361.06;;;-6.71;63.90
69035;BME280;56091;55.756;37.412;2022-12-20T09:37:30;99352.75;;;-6.66;63.90
69035;BME280;56091;55.756;37.412;2022-12-20T09:42:31;99336.53;;;-6.52;63.73
69035;BME280;56091;55.756;37.412;2022-12-20T09:47:33;99312.66;;;-6.49;63.25
69035;BME280;56091;55.756;37.412;2022-12-20T10:02:55;99300.28;;;-6.38;62.82
69035;BME280;56091;55.756;37.412;2022-12-20T10:08:05;99268.53;;;-6.45;62.49
69035;BME280;56091;55.756;37.412;2022-12-20T10:19:16;99274.97;;;-6.30;61.97
69035;BME280;56091;55.756;37.412;2022-12-20T10:24:19;99257.81;;;-6.24;62.40
69035;BME280;56091;55.756;37.412;2022-12-20T10:29:20;99262.53;;;-6.10;62.03
69035;BME280;56091;55.756;37.412;2022-12-20T10:34:22;99265.66;;;-5.88;61.98
69035;BME280;56091;55.756;37.412;2022-12-20T10:39:40;99255.25;;;-5.80;62.36
69035;BME280;56091;55.756;37.412;2022-12-20T10:44:42;99224.16;;;-5.66;61.66
69035;BME280;56091;55.756;37.412;2022-12-20T10:49:43;99215.75;;;-5.70;61.65
69035;BME280;56091;55.756;37.412;2022-12-20T10:54:45;99208.81;;;-5.53;61.28
69035;BME280;56091;55.756;37.412;2022-12-20T10:59:56;99236.81;;;-5.44;60.45
69035;BME280;56091;55.756;37.412;2022-12-20T11:10:19;99219.47;;;-5.55;61.78
69035;BME280;56091;55.756;37.412;2022-12-20T11:15:32;99218.44;;;-5.62;60.95
69035;BME280;56091;55.756;37.412;2022-12-20T11:31:14;99200.78;;;-6.14;62.76
69035;BME280;56091;55.756;37.412;2022-12-20T11:36:40;99192.06;;;-6.32;63.77
69035;BME280;56091;55.756;37.412;2022-12-20T11:47:31;99187.06;;;-6.71;64.90
69035;BME280;56091;55.756;37.412;2022-12-20T12:03:20;99175.09;;;-7.11;66.32
69035;BME280;56091;55.756;37.412;2022-12-20T12:08:31;99171.69;;;-7.31;66.98
69035;BME280;56091;55.756;37.412;2022-12-20T12:13:35;99169.88;;;-7.31;67.44
69035;BME280;56091;55.756;37.412;2022-12-20T12:18:39;99183.97;;;-7.32;67.11
69035;BME280;56091;55.756;37.412;2022-12-20T12:29:29;99180.84;;;-7.45;68.33
69035;BME280;56091;55.756;37.412;2022-12-20T12:45:47;99177.97;;;-7.61;69.16
69035;BME280;56091;55.756;37.412;2022-12-20T12:50:52;99169.69;;;-7.67;69.03
69035;BME280;56091;55.756;37.412;2022-12-20T12:55:55;99165.59;;;-7.79;69.53
69035;BME280;56091;55.756;37.412;2022-12-20T13:01:05;99179.94;;;-7.73;69.80
69035;BME280;56091;55.756;37.412;2022-12-20T13:11:34;99164.91;;;-7.81;70.39
69035;BME280;56091;55.756;37.412;2022-12-20T13:16:41;99161.19;;;-7.78;70.47
69035;BME280;56091;55.756;37.412;2022-12-20T13:21:46;99161.03;;;-7.77;70.37
69035;BME280;56091;55.756;37.412;2022-12-20T13:26:51;99157.16;;;-7.73;70.56
69035;BME280;56091;55.756;37.412;2022-12-20T13:31:52;99150.28;;;-7.83;70.63
69035;BME280;56091;55.756;37.412;2022-12-20T13:36:57;99153.16;;;-7.67;70.08
69035;BME280;56091;55.756;37.412;2022-12-20T13:42:37;99138.41;;;-7.78;70.38
69035;BME280;56091;55.756;37.412;2022-12-20T13:47:41;99162.69;;;-7.76;70.55
69035;BME280;56091;55.756;37.412;2022-12-20T13:52:46;99163.22;;;-7.72;71.05
69035;BME280;56091;55.756;37.412;2022-12-20T13:57:54;99127.31;;;-7.99;70.72
69035;BME280;56091;55.756;37.412;2022-12-20T14:02:55;99149.88;;;-7.79;70.98
69035;BME280;56091;55.756;37.412;2022-12-20T14:08:03;99146.59;;;-7.81;71.19
69035;BME280;56091;55.756;37.412;2022-12-20T14:13:22;99142.88;;;-7.88;71.37
69035;BME280;56091;55.756;37.412;2022-12-20T14:18:25;99145.91;;;-7.93;71.60
69035;BME280;56091;55.756;37.412;2022-12-20T14:23:35;99115.59;;;-8.15;72.43
69035;BME280;56091;55.756;37.412;2022-12-20T14:28:40;99131.56;;;-8.08;72.46
69035;BME280;56091;55.756;37.412;2022-12-20T14:33:43;99123.84;;;-8.19;73.00
69035;BME280;56091;55.756;37.412;2022-12-20T14:38:47;99131.44;;;-8.26;73.37
69035;BME280;56091;55.756;37.412;2022-12-20T14:43:54;99137.25;;;-8.32;73.91
69035;BME280;56091;55.756;37.412;2022-12-20T14:49:16;99117.28;;;-8.43;74.02
69035;BME280;56091;55.756;37.412;2022-12-20T14:54:24;99132.53;;;-8.38;74.13
69035;BME280;56091;55.756;37.412;2022-12-20T14:59:28;99126.22;;;-8.36;74.43
69035;BME280;56091;55.756;37.412;2022-12-20T15:04:33;99121.97;;;-8.47;74.43
69035;BME280;56091;55.756;37.412;2022-12-20T15:09:34;99139.03;;;-8.42;74.34
69035;BME280;56091;55.756;37.412;2022-12-20T15:14:37;99134.47;;;-8.40;74.80
69035;BME280;56091;55.756;37.412;2022-12-20T15:19:40;99141.66;;;-8.42;74.59
69035;BME280;56091;55.756;37.412;2022-12-20T15:24:41;99130.50;;;-8.45;74.69
69035;BME280;56091;55.756;37.412;2022-12-20T15:29:43;99140.03;;;-8.43;74.98
69035;BME280;56091;55.756;37.412;2022-12-20T15:34:43;99139.22;;;-8.44;75.20
69035;BME280;56091;55.756;37.412;2022-12-20T15:39:47;99140.41;;;-8.48;75.44
69035;BME280;56091;55.756;37.412;2022-12-20T15:44:48;99110.38;;;-8.64;75.50
69035;BME280;56091;55.756;37.412;2022-12-20T15:49:49;99135.34;;;-8.50;75.34
69035;BME280;56091;55.756;37.412;2022-12-20T15:54:53;99133.94;;;-8.34;75.33
69035;BME280;56091;55.756;37.412;2022-12-20T15:59:54;99129.94;;;-8.29;75.12
69035;BME280;56091;55.756;37.412;2022-12-20T16:04:55;99096.75;;;-8.38;74.95
69035;BME280;56091;55.756;37.412;2022-12-20T16:09:57;99120.44;;;-8.20;74.75
69035;BME280;56091;55.756;37.412;2022-12-20T16:14:57;99104.16;;;-8.33;74.87
69035;BME280;56091;55.756;37.412;2022-12-20T16:19:58;99132.44;;;-8.17;74.65
69035;BME280;56091;55.756;37.412;2022-12-20T16:25:02;99132.00;;;-8.13;74.81
69035;BME280;56091;55.756;37.412;2022-12-20T16:30:04;99120.72;;;-8.13;74.98
69035;BME280;56091;55.756;37.412;2022-12-20T16:35:27;99130.34;;;-8.14;74.55
69035;BME280;56091;55.756;37.412;2022-12-20T16:40:31;99118.19;;;-7.95;74.53
69035;BME280;56091;55.756;37.412;2022-12-20T16:45:32;99131.03;;;-8.12;74.61
69035;BME280;56091;55.756;37.412;2022-12-20T16:50:35;99125.53;;;-8.18;74.89
69035;BME280;56091;55.756;37.412;2022-12-20T16:55:41;99142.75;;;-8.26;75.32
69035;BME280;56091;55.756;37.412;2022-12-20T17:00:44;99129.09;;;-8.39;75.71
69035;BME280;56091;55.756;37.412;2022-12-20T17:05:45;99134.09;;;-8.46;75.82
69035;BME280;56091;55.756;37.412;2022-12-20T17:10:48;99142.50;;;-8.42;75.73
69035;BME280;56091;55.756;37.412;2022-12-20T17:15:49;99075.38;;;-8.92;76.08
69035;BME280;56091;55.756;37.412;2022-12-20T17:20:50;99138.34;;;-8.54;76.41
69035;BME280;56091;55.756;37.412;2022-12-20T17:25:51;99127.06;;;-8.55;76.64
69035;BME280;56091;55.756;37.412;2022-12-20T17:30:52;99120.16;;;-8.56;76.56
69035;BME280;56091;55.756;37.412;2022-12-20T17:35:53;99118.25;;;-8.54;76.26
69035;BME280;56091;55.756;37.412;2022-12-20T17:40:54;99122.25;;;-8.50;76.17
69035;BME280;56091;55.756;37.412;2022-12-20T17:45:55;99116.75;;;-8.47;76.04
69035;BME280;56091;55.756;37.412;2022-12-20T17:50:56;99119.78;;;-8.41;75.89
69035;BME280;56091;55.756;37.412;2022-12-20T17:55:57;99114.13;;;-8.47;76.24
69035;BME280;56091;55.756;37.412;2022-12-20T18:00:58;99091.94;;;-8.42;76.13
69035;BME280;56091;55.756;37.412;2022-12-20T18:05:58;99107.09;;;-8.36;75.76
69035;BME280;56091;55.756;37.412;2022-12-20T18:11:00;99121.00;;;-8.36;76.16
69035;BME280;56091;55.756;37.412;2022-12-20T18:16:07;99125.28;;;-8.45;76.45
69035;BME280;56091;55.756;37.412;2022-12-20T18:21:10;99123.75;;;-8.57;77.34
69035;BME280;56091;55.756;37.412;2022-12-20T18:31:21;99084.34;;;-8.85;78.29
69035;BME280;56091;55.756;37.412;2022-12-20T18:36:29;99111.88;;;-8.80;78.93
69035;BME280;56091;55.756;37.412;2022-12-20T18:41:30;99096.19;;;-8.90;79.51
69035;BME280;56091;55.756;37.412;2022-12-20T18:46:32;99098.53;;;-8.77;79.83
69035;BME280;56091;55.756;37.412;2022-12-20T18:51:36;99072.09;;;-8.94;79.81
69035;BME280;56091;55.756;37.412;2022-12-20T18:56:38;99100.75;;;-8.73;79.77
69035;BME280;56091;55.756;37.412;2022-12-20T19:01:40;99101.97;;;-8.77;79.85
69035;BME280;56091;55.756;37.412;2022-12-20T19:06:41;99092.88;;;-8.82;79.90
69035;BME280;56091;55.756;37.412;2022-12-20T19:11:42;99058.19;;;-9.04;80.11
69035;BME280;56091;55.756;37.412;2022-12-20T19:16:43;99091.50;;;-8.96;80.00
69035;BME280;56091;55.756;37.412;2022-12-20T19:21:45;99124.00;;;-8.79;80.17
69035;BME280;56091;55.756;37.412;2022-12-20T19:26:47;99106.38;;;-8.87;79.92
69035;BME280;56091;55.756;37.412;2022-12-20T19:31:48;99028.28;;;-9.31;80.09
69035;BME280;56091;55.756;37.412;2022-12-20T19:36:49;99113.25;;;-8.76;80.18
69035;BME280;56091;55.756;37.412;2022-12-20T19:41:51;99122.34;;;-8.71;80.25
69035;BME280;56091;55.756;37.412;2022-12-20T19:46:52;99114.25;;;-8.58;80.51
69035;BME280;56091;55.756;37.412;2022-12-20T19:51:53;99104.63;;;-8.48;80.22
69035;BME280;56091;55.756;37.412;2022-12-20T19:56:54;99116.44;;;-8.24;79.96
69035;BME280;56091;55.756;37.412;2022-12-20T20:01:54;99124.28;;;-8.14;80.19
69035;BME280;56091;55.756;37.412;2022-12-20T20:06:55;99121.94;;;-8.08;80.06
69035;BME280;56091;55.756;37.412;2022-12-20T20:11:56;99126.19;;;-7.87;79.60
69035;BME280;56091;55.756;37.412;2022-12-20T20:16:57;99130.72;;;-7.70;79.16
69035;BME280;56091;55.756;37.412;2022-12-20T20:21:58;99123.63;;;-7.59;78.85
69035;BME280;56091;55.756;37.412;2022-12-20T20:26:58;99124.19;;;-7.56;78.30
69035;BME280;56091;55.756;37.412;2022-12-20T20:32:02;99114.91;;;-7.50;78.19
69035;BME280;56091;55.756;37.412;2022-12-20T20:37:03;99130.72;;;-7.32;77.91
69035;BME280;56091;55.756;37.412;2022-12-20T20:42:07;99120.94;;;-7.40;77.54
69035;BME280;56091;55.756;37.412;2022-12-20T20:47:07;99118.31;;;-7.30;77.23
69035;BME280;56091;55.756;37.412;2022-12-20T20:52:09;99122.28;;;-7.26;76.76
69035;BME280;56091;55.756;37.412;2022-12-20T20:57:10;99124.31;;;-7.20;76.70
69035;BME280;56091;55.756;37.412;2022-12-20T21:02:11;99117.69;;;-7.14;76.45
69035;BME280;56091;55.756;37.412;2022-12-20T21:07:13;99127.97;;;-7.03;76.44
69035;BME280;56091;55.756;37.412;2022-12-20T21:12:14;99125.50;;;-7.04;76.05
69035;BME280;56091;55.756;37.412;2022-12-20T21:17:16;99127.78;;;-6.92;75.71
69035;BME280;56091;55.756;37.412;2022-12-20T21:22:17;99125.16;;;-6.92;75.58
69035;BME280;56091;55.756;37.412;2022-12-20T21:27:18;99144.06;;;-6.88;75.75
69035;BME280;56091;55.756;37.412;2022-12-20T21:32:19;99137.97;;;-6.89;76.67
69035;BME280;56091;55.756;37.412;2022-12-20T21:37:20;99134.19;;;-6.58;76.09
69035;BME280;56091;55.756;37.412;2022-12-20T21:42:21;99140.81;;;-6.54;76.01
69035;BME280;56091;55.756;37.412;2022-12-20T21:47:22;99130.25;;;-6.44;75.79
69035;BME280;56091;55.756;37.412;2022-12-20T21:52:24;99128.16;;;-6.41;75.73
69035;BME280;56091;55.756;37.412;2022-12-20T21:57:25;99135.72;;;-6.38;75.78
69035;BME280;56091;55.756;37.412;2022-12-20T22:02:26;99139.63;;;-6.24;75.82
69035;BME280;56091;55.756;37.412;2022-12-20T22:07:27;99128.28;;;-6.24;75.63
69035;BME280;56091;55.756;37.412;2022-12-20T22:12:28;99132.88;;;-6.26;76.15
69035;BME280;56091;55.756;37.412;2022-12-20T22:17:30;99121.47;;;-6.17;75.36
69035;BME280;56091;55.756;37.412;2022-12-20T22:22:31;99117.84;;;-5.98;75.12
69035;BME280;56091;55.756;37.412;2022-12-20T22:27:32;99108.34;;;-5.91;74.71
69035;BME280;56091;55.756;37.412;2022-12-20T22:32:33;99114.28;;;-5.89;74.60
69035;BME280;56091;55.756;37.412;2022-12-20T22:37:33;99120.91;;;-5.77;74.49
69035;BME280;56091;55.756;37.412;2022-12-20T22:42:38;99097.47;;;-5.70;74.80
69035;BME280;56091;55.756;37.412;2022-12-20T22:47:39;99095.13;;;-5.55;74.60
69035;BME280;56091;55.756;37.412;2022-12-20T22:52:40;99104.84;;;-5.47;73.60
69035;BME280;56091;55.756;37.412;2022-12-20T22:57:43;99069.34;;;-5.78;74.22
69035;BME280;56091;55.756;37.412;2022-12-20T23:02:47;99088.19;;;-5.56;73.84
69035;BME280;56091;55.756;37.412;2022-12-20T23:07:47;99086.63;;;-5.41;74.17
69035;BME280;56091;55.756;37.412;2022-12-20T23:12:48;99083.56;;;-5.28;73.62
69035;BME280;56091;55.756;37.412;2022-12-20T23:18:08;99080.78;;;-5.26;73.42
69035;BME280;56091;55.756;37.412;2022-12-20T23:23:08;99070.94;;;-5.24;73.33
69035;BME280;56091;55.756;37.412;2022-12-20T23:28:09;99071.94;;;-5.17;73.50
69035;BME280;56091;55.756;37.412;2022-12-20T23:33:10;99088.41;;;-5.07;73.07
69035;BME280;56091;55.756;37.412;2022-12-20T23:38:11;99078.38;;;-5.12;72.55
69035;BME280;56091;55.756;37.412;2022-12-20T23:43:11;99076.56;;;-5.11;73.01
69035;BME280;56091;55.756;37.412;2022-12-20T23:48:12;99064.06;;;-5.17;73.30
69035;BME280;56091;55.756;37.412;2022-12-20T23:53:15;99076.72;;;-5.13;72.91
69035;BME280;56091;55.756;37.412;2022-12-20T23:58:19;99079.47;;;-5.31;73.37
